sensor_id;sensor_type;location;lat;lon;timestamp;P1;durP1;ratioP1;P2;durP2;ratioP2
32445;SDS011;18899;50.748;7.102;2023-12-20T00:01:28;3.45;;;1.80;;
32445;SDS011;18899;50.748;7.102;2023-12-20T00:03:54;3.67;;;1.70;;
32445;SDS011;18899;50.748;7.102;2023-12-20T00:06:19;2.08;;;1.63;;
32445;SDS011;18899;50.748;7.102;2023-12-20T00:08:45;4.03;;;1.70;;
32445;SDS011;18899;50.748;7.102;2023-12-20T00:11:10;2.95;;;1.98;;
32445;SDS011;18899;50.748;7.102;2023-12-20T00:13:36;2.90;;;1.88;;
32445;SDS011;18899;50.748;7.102;2023-12-20T00:16:01;3.08;;;1.75;;
32445;SDS011;18899;50.748;7.102;2023-12-20T00:18:27;5.05;;;1.92;;
32445;SDS011;18899;50.748;7.102;2023-12-20T00:20:53;4.00;;;2.15;;
32445;SDS011;18899;50.748;7.102;2023-12-20T00:23:18;3.13;;;2.00;;
32445;SDS011;18899;50.748;7.102;2023-12-20T00:25:44;3.70;;;1.75;;
32445;SDS011;18899;50.748;7.102;2023-12-20T00:28:09;3.03;;;2.00;;
32445;SDS011;18899;50.748;7.102;2023-12-20T00:30:35;3.28;;;1.92;;
32445;SDS011;18899;50.748;7.102;2023-12-20T00:33:02;2.67;;;1.98;;
32445;SDS011;18899;50.748;7.102;2023-12-20T00:35:27;3.97;;;2.20;;
32445;SDS011;18899;50.748;7.102;2023-12-20T00:37:53;3.67;;;1.60;;
32445;SDS011;18899;50.748;7.102;2023-12-20T00:40:18;3.38;;;1.90;;
32445;SDS011;18899;50.748;7.102;2023-12-20T00:42:45;3.28;;;2.22;;
32445;SDS011;18899;50.748;7.102;2023-12-20T00:45:11;3.33;;;1.85;;
32445;SDS011;18899;50.748;7.102;2023-12-20T00:47:37;2.78;;;1.90;;
32445;SDS011;18899;50.748;7.102;2023-12-20T00:50:03;2.65;;;2.00;;
32445;SDS011;18899;50.748;7.102;2023-12-20T00:52:29;3.97;;;1.58;;
32445;SDS011;18899;50.748;7.102;2023-12-20T00:54:54;2.67;;;1.67;;
32445;SDS011;18899;50.748;7.102;2023-12-20T00:57:20;2.22;;;1.60;;
32445;SDS011;18899;50.748;7.102;2023-12-20T00:59:45;4.82;;;1.63;;
32445;SDS011;18899;50.748;7.102;2023-12-20T01:02:11;2.05;;;1.50;;
32445;SDS011;18899;50.748;7.102;2023-12-20T01:04:36;4.00;;;1.70;;
32445;SDS011;18899;50.748;7.102;2023-12-20T01:07:02;2.83;;;1.25;;
32445;SDS011;18899;50.748;7.102;2023-12-20T01:09:27;1.60;;;1.20;;
32445;SDS011;18899;50.748;7.102;2023-12-20T01:11:53;2.42;;;1.27;;
32445;SDS011;18899;50.748;7.102;2023-12-20T01:14:18;1.67;;;1.25;;
32445;SDS011;18899;50.748;7.102;2023-12-20T01:16:44;2.38;;;1.38;;
32445;SDS011;18899;50.748;7.102;2023-12-20T01:19:09;3.08;;;1.50;;
32445;SDS011;18899;50.748;7.102;2023-12-20T01:21:35;3.90;;;1.92;;
32445;SDS011;18899;50.748;7.102;2023-12-20T01:24:01;4.32;;;2.42;;
32445;SDS011;18899;50.748;7.102;2023-12-20T01:26:26;3.40;;;2.47;;
32445;SDS011;18899;50.748;7.102;2023-12-20T01:28:52;3.30;;;2.15;;
32445;SDS011;18899;50.748;7.102;2023-12-20T01:31:18;5.07;;;3.30;;
32445;SDS011;18899;50.748;7.102;2023-12-20T01:33:44;4.55;;;3.28;;
32445;SDS011;18899;50.748;7.102;2023-12-20T01:36:09;6.05;;;3.88;;
32445;SDS011;18899;50.748;7.102;2023-12-20T01:38:36;8.93;;;4.45;;
32445;SDS011;18899;50.748;7.102;2023-12-20T01:41:01;6.53;;;4.57;;
32445;SDS011;18899;50.748;7.102;2023-12-20T01:43:27;14.32;;;5.65;;
32445;SDS011;18899;50.748;7.102;2023-12-20T01:45:52;8.20;;;5.45;;
32445;SDS011;18899;50.748;7.102;2023-12-20T01:48:21;10.80;;;5.78;;
32445;SDS011;18899;50.748;7.102;2023-12-20T01:50:48;11.30;;;6.22;;
32445;SDS011;18899;50.748;7.102;2023-12-20T01:53:14;13.45;;;7.18;;
32445;SDS011;18899;50.748;7.102;2023-12-20T01:55:40;16.52;;;7.25;;
32445;SDS011;18899;50.748;7.102;2023-12-20T01:58:07;15.43;;;8.63;;
32445;SDS011;18899;50.748;7.102;2023-12-20T02:00:34;15.43;;;8.63;;
32445;SDS011;18899;50.748;7.102;2023-12-20T02:03:01;21.92;;;9.48;;
32445;SDS011;18899;50.748;7.102;2023-12-20T02:05:27;20.25;;;9.07;;
32445;SDS011;18899;50.748;7.102;2023-12-20T02:07:54;20.90;;;9.27;;
32445;SDS011;18899;50.748;7.102;2023-12-20T02:10:19;21.88;;;9.43;;
32445;SDS011;18899;50.748;7.102;2023-12-20T02:12:45;20.02;;;8.88;;
32445;SDS011;18899;50.748;7.102;2023-12-20T02:15:11;22.40;;;10.52;;
32445;SDS011;18899;50.748;7.102;2023-12-20T02:17:37;18.35;;;9.02;;
32445;SDS011;18899;50.748;7.102;2023-12-20T02:20:04;15.93;;;9.20;;
32445;SDS011;18899;50.748;7.102;2023-12-20T02:22:31;17.73;;;9.20;;
32445;SDS011;18899;50.748;7.102;2023-12-20T02:24:56;13.07;;;7.82;;
32445;SDS011;18899;50.748;7.102;2023-12-20T02:27:22;18.30;;;6.65;;
32445;SDS011;18899;50.748;7.102;2023-12-20T02:29:48;13.50;;;6.00;;
32445;SDS011;18899;50.748;7.102;2023-12-20T02:32:15;11.70;;;5.68;;
32445;SDS011;18899;50.748;7.102;2023-12-20T02:34:44;16.00;;;5.13;;
32445;SDS011;18899;50.748;7.102;2023-12-20T02:37:10;17.00;;;4.07;;
32445;SDS011;18899;50.748;7.102;2023-12-20T02:39:36;20.05;;;4.82;;
32445;SDS011;18899;50.748;7.102;2023-12-20T02:42:01;15.00;;;3.55;;
32445;SDS011;18899;50.748;7.102;2023-12-20T02:44:27;15.80;;;3.75;;
32445;SDS011;18899;50.748;7.102;2023-12-20T02:46:53;12.57;;;3.67;;
32445;SDS011;18899;50.748;7.102;2023-12-20T02:49:18;14.15;;;3.70;;
32445;SDS011;18899;50.748;7.102;2023-12-20T02:51:44;12.68;;;3.15;;
32445;SDS011;18899;50.748;7.102;2023-12-20T02:54:09;19.58;;;3.25;;
32445;SDS011;18899;50.748;7.102;2023-12-20T02:56:35;14.85;;;3.13;;
32445;SDS011;18899;50.748;7.102;2023-12-20T02:59:00;16.05;;;3.30;;
32445;SDS011;18899;50.748;7.102;2023-12-20T03:01:27;14.60;;;4.03;;
32445;SDS011;18899;50.748;7.102;2023-12-20T03:03:54;22.10;;;3.55;;
32445;SDS011;18899;50.748;7.102;2023-12-20T03:06:19;15.32;;;3.58;;
32445;SDS011;18899;50.748;7.102;2023-12-20T03:08:45;20.83;;;3.13;;
32445;SDS011;18899;50.748;7.102;2023-12-20T03:11:11;14.68;;;2.65;;
32445;SDS011;18899;50.748;7.102;2023-12-20T03:13:37;17.50;;;2.95;;
32445;SDS011;18899;50.748;7.102;2023-12-20T03:16:12;16.15;;;2.42;;
32445;SDS011;18899;50.748;7.102;2023-12-20T03:18:38;17.60;;;3.03;;
32445;SDS011;18899;50.748;7.102;2023-12-20T03:21:04;12.90;;;2.67;;
32445;SDS011;18899;50.748;7.102;2023-12-20T03:23:30;15.80;;;2.47;;
32445;SDS011;18899;50.748;7.102;2023-12-20T03:25:57;10.13;;;2.30;;
32445;SDS011;18899;50.748;7.102;2023-12-20T03:28:23;12.75;;;2.63;;
32445;SDS011;18899;50.748;7.102;2023-12-20T03:30:48;13.98;;;2.55;;
32445;SDS011;18899;50.748;7.102;2023-12-20T03:33:14;9.80;;;2.05;;
32445;SDS011;18899;50.748;7.102;2023-12-20T03:35:40;17.13;;;3.22;;
32445;SDS011;18899;50.748;7.102;2023-12-20T03:38:06;13.57;;;2.22;;
32445;SDS011;18899;50.748;7.102;2023-12-20T03:40:32;14.00;;;2.15;;
32445;SDS011;18899;50.748;7.102;2023-12-20T03:42:57;23.08;;;2.97;;
32445;SDS011;18899;50.748;7.102;2023-12-20T03:45:23;13.48;;;2.47;;
32445;SDS011;18899;50.748;7.102;2023-12-20T03:47:48;13.45;;;2.67;;
32445;SDS011;18899;50.748;7.102;2023-12-20T03:50:14;20.23;;;3.17;;
32445;SDS011;18899;50.748;7.102;2023-12-20T03:52:40;29.35;;;2.70;;
32445;SDS011;18899;50.748;7.102;2023-12-20T03:55:05;8.70;;;2.45;;
32445;SDS011;18899;50.748;7.102;2023-12-20T03:57:31;22.35;;;2.90;;
32445;SDS011;18899;50.748;7.102;2023-12-20T03:59:57;13.27;;;2.92;;
32445;SDS011;18899;50.748;7.102;2023-12-20T04:02:22;23.95;;;3.17;;
32445;SDS011;18899;50.748;7.102;2023-12-20T04:04:48;16.05;;;2.67;;
32445;SDS011;18899;50.748;7.102;2023-12-20T04:07:13;20.67;;;2.85;;
32445;SDS011;18899;50.748;7.102;2023-12-20T04:09:40;17.00;;;2.65;;
32445;SDS011;18899;50.748;7.102;2023-12-20T04:12:06;16.35;;;2.90;;
32445;SDS011;18899;50.748;7.102;2023-12-20T04:14:32;18.52;;;2.80;;
32445;SDS011;18899;50.748;7.102;2023-12-20T04:16:57;13.48;;;2.58;;
32445;SDS011;18899;50.748;7.102;2023-12-20T04:19:23;13.50;;;2.70;;
32445;SDS011;18899;50.748;7.102;2023-12-20T04:21:48;9.98;;;2.25;;
32445;SDS011;18899;50.748;7.102;2023-12-20T04:24:14;17.27;;;2.83;;
32445;SDS011;18899;50.748;7.102;2023-12-20T04:26:39;15.32;;;3.25;;
32445;SDS011;18899;50.748;7.102;2023-12-20T04:29:05;15.90;;;2.65;;
32445;SDS011;18899;50.748;7.102;2023-12-20T04:31:30;15.18;;;2.53;;
32445;SDS011;18899;50.748;7.102;2023-12-20T04:33:56;19.48;;;2.30;;
32445;SDS011;18899;50.748;7.102;2023-12-20T04:36:21;19.77;;;3.50;;
32445;SDS011;18899;50.748;7.102;2023-12-20T04:38:47;16.13;;;3.55;;
32445;SDS011;18899;50.748;7.102;2023-12-20T04:41:13;18.33;;;2.90;;
32445;SDS011;18899;50.748;7.102;2023-12-20T04:43:40;16.08;;;2.60;;
32445;SDS011;18899;50.748;7.102;2023-12-20T04:46:06;18.80;;;2.75;;
32445;SDS011;18899;50.748;7.102;2023-12-20T04:48:32;21.77;;;3.38;;
32445;SDS011;18899;50.748;7.102;2023-12-20T04:50:57;17.75;;;3.40;;
32445;SDS011;18899;50.748;7.102;2023-12-20T04:53:23;21.58;;;3.95;;
32445;SDS011;18899;50.748;7.102;2023-12-20T04:55:49;18.80;;;2.70;;
32445;SDS011;18899;50.748;7.102;2023-12-20T04:58:14;25.10;;;2.90;;
32445;SDS011;18899;50.748;7.102;2023-12-20T05:00:39;18.25;;;3.10;;
32445;SDS011;18899;50.748;7.102;2023-12-20T05:03:06;15.38;;;2.38;;
32445;SDS011;18899;50.748;7.102;2023-12-20T05:05:31;15.98;;;3.20;;
32445;SDS011;18899;50.748;7.102;2023-12-20T05:07:57;12.90;;;2.95;;
32445;SDS011;18899;50.748;7.102;2023-12-20T05:10:22;19.98;;;3.08;;
32445;SDS011;18899;50.748;7.102;2023-12-20T05:12:48;14.77;;;3.33;;
32445;SDS011;18899;50.748;7.102;2023-12-20T05:15:13;16.38;;;2.92;;
32445;SDS011;18899;50.748;7.102;2023-12-20T05:17:39;30.52;;;3.97;;
32445;SDS011;18899;50.748;7.102;2023-12-20T05:20:04;19.90;;;2.95;;
32445;SDS011;18899;50.748;7.102;2023-12-20T05:22:31;11.90;;;2.65;;
32445;SDS011;18899;50.748;7.102;2023-12-20T05:24:56;22.52;;;3.15;;
32445;SDS011;18899;50.748;7.102;2023-12-20T05:27:21;19.08;;;3.25;;
32445;SDS011;18899;50.748;7.102;2023-12-20T05:29:47;14.43;;;2.90;;
32445;SDS011;18899;50.748;7.102;2023-12-20T05:32:12;18.30;;;4.07;;
32445;SDS011;18899;50.748;7.102;2023-12-20T05:34:38;21.05;;;3.67;;
32445;SDS011;18899;50.748;7.102;2023-12-20T05:37:03;13.85;;;2.67;;
32445;SDS011;18899;50.748;7.102;2023-12-20T05:39:29;24.23;;;4.13;;
32445;SDS011;18899;50.748;7.102;2023-12-20T05:41:55;19.45;;;3.13;;
32445;SDS011;18899;50.748;7.102;2023-12-20T05:44:21;27.98;;;3.55;;
32445;SDS011;18899;50.748;7.102;2023-12-20T05:46:47;20.42;;;3.22;;
32445;SDS011;18899;50.748;7.102;2023-12-20T05:49:12;33.13;;;3.40;;
32445;SDS011;18899;50.748;7.102;2023-12-20T05:51:38;19.52;;;3.90;;
32445;SDS011;18899;50.748;7.102;2023-12-20T05:54:04;19.75;;;3.75;;
32445;SDS011;18899;50.748;7.102;2023-12-20T05:56:29;14.85;;;3.30;;
32445;SDS011;18899;50.748;7.102;2023-12-20T05:58:55;13.95;;;4.03;;
32445;SDS011;18899;50.748;7.102;2023-12-20T06:01:20;17.67;;;4.07;;
32445;SDS011;18899;50.748;7.102;2023-12-20T06:03:46;20.60;;;3.30;;
32445;SDS011;18899;50.748;7.102;2023-12-20T06:06:11;17.40;;;3.38;;
32445;SDS011;18899;50.748;7.102;2023-12-20T06:08:40;14.43;;;2.83;;
32445;SDS011;18899;50.748;7.102;2023-12-20T06:11:06;19.92;;;3.28;;
32445;SDS011;18899;50.748;7.102;2023-12-20T06:13:31;14.40;;;4.32;;
32445;SDS011;18899;50.748;7.102;2023-12-20T06:15:57;13.38;;;3.13;;
32445;SDS011;18899;50.748;7.102;2023-12-20T06:18:22;12.75;;;3.15;;
32445;SDS011;18899;50.748;7.102;2023-12-20T06:20:49;22.08;;;3.30;;
32445;SDS011;18899;50.748;7.102;2023-12-20T06:23:15;20.38;;;3.13;;
32445;SDS011;18899;50.748;7.102;2023-12-20T06:25:40;25.58;;;4.72;;
32445;SDS011;18899;50.748;7.102;2023-12-20T06:28:06;22.25;;;4.00;;
32445;SDS011;18899;50.748;7.102;2023-12-20T06:30:31;18.83;;;3.67;;
32445;SDS011;18899;50.748;7.102;2023-12-20T06:32:58;19.70;;;2.90;;
32445;SDS011;18899;50.748;7.102;2023-12-20T06:35:23;22.35;;;3.17;;
32445;SDS011;18899;50.748;7.102;2023-12-20T06:37:49;20.38;;;3.05;;
32445;SDS011;18899;50.748;7.102;2023-12-20T06:40:15;29.85;;;3.85;;
32445;SDS011;18899;50.748;7.102;2023-12-20T06:42:41;17.02;;;3.35;;
32445;SDS011;18899;50.748;7.102;2023-12-20T06:45:07;16.58;;;3.30;;
32445;SDS011;18899;50.748;7.102;2023-12-20T06:47:33;19.77;;;3.33;;
32445;SDS011;18899;50.748;7.102;2023-12-20T06:49:58;21.73;;;3.42;;
32445;SDS011;18899;50.748;7.102;2023-12-20T06:52:24;20.95;;;3.40;;
32445;SDS011;18899;50.748;7.102;2023-12-20T06:54:49;25.50;;;3.70;;
32445;SDS011;18899;50.748;7.102;2023-12-20T06:57:15;31.63;;;3.55;;
32445;SDS011;18899;50.748;7.102;2023-12-20T06:59:41;16.67;;;3.50;;
32445;SDS011;18899;50.748;7.102;2023-12-20T07:02:07;16.45;;;3.03;;
32445;SDS011;18899;50.748;7.102;2023-12-20T07:04:33;22.33;;;3.28;;
32445;SDS011;18899;50.748;7.102;2023-12-20T07:06:59;22.17;;;3.75;;
32445;SDS011;18899;50.748;7.102;2023-12-20T07:09:25;14.85;;;2.72;;
32445;SDS011;18899;50.748;7.102;2023-12-20T07:11:51;21.33;;;3.55;;
32445;SDS011;18899;50.748;7.102;2023-12-20T07:14:17;27.05;;;3.28;;
32445;SDS011;18899;50.748;7.102;2023-12-20T07:16:43;22.30;;;3.20;;
32445;SDS011;18899;50.748;7.102;2023-12-20T07:19:08;17.48;;;2.65;;
32445;SDS011;18899;50.748;7.102;2023-12-20T07:21:34;22.80;;;3.15;;
32445;SDS011;18899;50.748;7.102;2023-12-20T07:23:59;22.45;;;4.00;;
32445;SDS011;18899;50.748;7.102;2023-12-20T07:26:25;23.38;;;3.08;;
32445;SDS011;18899;50.748;7.102;2023-12-20T07:28:50;15.98;;;3.00;;
32445;SDS011;18899;50.748;7.102;2023-12-20T07:31:16;19.25;;;3.40;;
32445;SDS011;18899;50.748;7.102;2023-12-20T07:33:41;27.45;;;3.05;;
32445;SDS011;18899;50.748;7.102;2023-12-20T07:36:07;17.75;;;3.13;;
32445;SDS011;18899;50.748;7.102;2023-12-20T07:38:33;18.23;;;3.28;;
32445;SDS011;18899;50.748;7.102;2023-12-20T07:40:58;13.82;;;2.78;;
32445;SDS011;18899;50.748;7.102;2023-12-20T07:43:24;18.88;;;3.28;;
32445;SDS011;18899;50.748;7.102;2023-12-20T07:45:49;17.55;;;2.78;;
32445;SDS011;18899;50.748;7.102;2023-12-20T07:48:15;13.07;;;2.88;;
32445;SDS011;18899;50.748;7.102;2023-12-20T07:50:41;13.57;;;2.72;;
32445;SDS011;18899;50.748;7.102;2023-12-20T07:53:07;17.33;;;3.58;;
32445;SDS011;18899;50.748;7.102;2023-12-20T07:55:33;15.45;;;2.80;;
32445;SDS011;18899;50.748;7.102;2023-12-20T07:57:59;18.98;;;3.72;;
32445;SDS011;18899;50.748;7.102;2023-12-20T08:00:25;19.92;;;3.85;;
32445;SDS011;18899;50.748;7.102;2023-12-20T08:02:51;16.98;;;3.33;;
32445;SDS011;18899;50.748;7.102;2023-12-20T08:05:16;17.55;;;3.28;;
32445;SDS011;18899;50.748;7.102;2023-12-20T08:07:42;20.25;;;3.05;;
32445;SDS011;18899;50.748;7.102;2023-12-20T08:10:07;14.93;;;3.78;;
32445;SDS011;18899;50.748;7.102;2023-12-20T08:12:33;13.45;;;3.00;;
32445;SDS011;18899;50.748;7.102;2023-12-20T08:14:59;22.50;;;3.55;;
32445;SDS011;18899;50.748;7.102;2023-12-20T08:17:25;25.73;;;3.17;;
32445;SDS011;18899;50.748;7.102;2023-12-20T08:19:50;20.13;;;3.42;;
32445;SDS011;18899;50.748;7.102;2023-12-20T08:22:16;18.38;;;3.75;;
32445;SDS011;18899;50.748;7.102;2023-12-20T08:24:42;21.05;;;3.40;;
32445;SDS011;18899;50.748;7.102;2023-12-20T08:27:07;10.85;;;2.30;;
32445;SDS011;18899;50.748;7.102;2023-12-20T08:29:34;20.30;;;3.15;;
32445;SDS011;18899;50.748;7.102;2023-12-20T08:32:00;18.90;;;3.55;;
32445;SDS011;18899;50.748;7.102;2023-12-20T08:34:26;24.65;;;3.08;;
32445;SDS011;18899;50.748;7.102;2023-12-20T08:36:52;13.93;;;2.20;;
32445;SDS011;18899;50.748;7.102;2023-12-20T08:39:17;26.70;;;3.28;;
32445;SDS011;18899;50.748;7.102;2023-12-20T08:41:43;20.70;;;3.80;;
32445;SDS011;18899;50.748;7.102;2023-12-20T08:44:08;18.65;;;3.28;;
32445;SDS011;18899;50.748;7.102;2023-12-20T08:46:34;14.23;;;2.97;;
32445;SDS011;18899;50.748;7.102;2023-12-20T08:49:00;12.93;;;2.63;;
32445;SDS011;18899;50.748;7.102;2023-12-20T08:51:26;21.00;;;3.30;;
32445;SDS011;18899;50.748;7.102;2023-12-20T08:53:52;20.67;;;2.88;;
32445;SDS011;18899;50.748;7.102;2023-12-20T08:56:18;17.40;;;2.83;;
32445;SDS011;18899;50.748;7.102;2023-12-20T08:58:44;21.25;;;3.45;;
32445;SDS011;18899;50.748;7.102;2023-12-20T09:01:11;26.50;;;3.45;;
32445;SDS011;18899;50.748;7.102;2023-12-20T09:03:36;25.48;;;3.45;;
32445;SDS011;18899;50.748;7.102;2023-12-20T09:06:02;21.75;;;2.97;;
32445;SDS011;18899;50.748;7.102;2023-12-20T09:08:28;18.08;;;3.38;;
32445;SDS011;18899;50.748;7.102;2023-12-20T09:10:53;23.23;;;2.47;;
32445;SDS011;18899;50.748;7.102;2023-12-20T09:13:19;11.27;;;2.90;;
32445;SDS011;18899;50.748;7.102;2023-12-20T09:15:45;16.33;;;2.63;;
32445;SDS011;18899;50.748;7.102;2023-12-20T09:18:11;13.60;;;2.80;;
32445;SDS011;18899;50.748;7.102;2023-12-20T09:20:37;21.13;;;3.42;;
32445;SDS011;18899;50.748;7.102;2023-12-20T09:23:02;10.90;;;2.25;;
32445;SDS011;18899;50.748;7.102;2023-12-20T09:25:28;16.85;;;2.63;;
32445;SDS011;18899;50.748;7.102;2023-12-20T09:27:54;20.38;;;2.67;;
32445;SDS011;18899;50.748;7.102;2023-12-20T09:30:20;18.83;;;2.45;;
32445;SDS011;18899;50.748;7.102;2023-12-20T09:32:46;12.27;;;2.40;;
32445;SDS011;18899;50.748;7.102;2023-12-20T09:35:11;11.63;;;2.78;;
32445;SDS011;18899;50.748;7.102;2023-12-20T09:37:37;17.92;;;2.67;;
32445;SDS011;18899;50.748;7.102;2023-12-20T09:40:03;16.77;;;2.50;;
32445;SDS011;18899;50.748;7.102;2023-12-20T09:42:39;10.80;;;2.80;;
32445;SDS011;18899;50.748;7.102;2023-12-20T09:45:11;16.00;;;3.33;;
32445;SDS011;18899;50.748;7.102;2023-12-20T09:47:41;16.15;;;2.53;;
32445;SDS011;18899;50.748;7.102;2023-12-20T09:50:08;11.38;;;2.22;;
32445;SDS011;18899;50.748;7.102;2023-12-20T09:52:34;12.18;;;2.47;;
32445;SDS011;18899;50.748;7.102;2023-12-20T09:55:01;15.43;;;2.65;;
32445;SDS011;18899;50.748;7.102;2023-12-20T09:57:31;14.18;;;2.72;;
32445;SDS011;18899;50.748;7.102;2023-12-20T09:59:57;15.20;;;2.80;;
32445;SDS011;18899;50.748;7.102;2023-12-20T10:02:23;24.45;;;3.50;;
32445;SDS011;18899;50.748;7.102;2023-12-20T10:04:52;15.93;;;2.92;;
32445;SDS011;18899;50.748;7.102;2023-12-20T10:07:17;12.68;;;2.05;;
32445;SDS011;18899;50.748;7.102;2023-12-20T10:09:43;14.93;;;2.08;;
32445;SDS011;18899;50.748;7.102;2023-12-20T10:12:09;14.57;;;2.47;;
32445;SDS011;18899;50.748;7.102;2023-12-20T10:14:34;20.50;;;2.85;;
32445;SDS011;18899;50.748;7.102;2023-12-20T10:17:03;14.85;;;2.17;;
32445;SDS011;18899;50.748;7.102;2023-12-20T10:19:30;18.98;;;2.65;;
32445;SDS011;18899;50.748;7.102;2023-12-20T10:22:00;17.40;;;2.63;;
32445;SDS011;18899;50.748;7.102;2023-12-20T10:24:28;17.65;;;2.40;;
32445;SDS011;18899;50.748;7.102;2023-12-20T10:27:01;21.65;;;2.80;;
32445;SDS011;18899;50.748;7.102;2023-12-20T10:29:36;11.95;;;2.65;;
32445;SDS011;18899;50.748;7.102;2023-12-20T10:32:22;21.02;;;3.03;;
32445;SDS011;18899;50.748;7.102;2023-12-20T10:34:51;24.23;;;3.15;;
32445;SDS011;18899;50.748;7.102;2023-12-20T10:37:17;16.65;;;2.10;;
32445;SDS011;18899;50.748;7.102;2023-12-20T10:39:43;12.35;;;2.15;;
32445;SDS011;18899;50.748;7.102;2023-12-20T10:42:11;20.80;;;2.92;;
32445;SDS011;18899;50.748;7.102;2023-12-20T10:44:38;16.05;;;3.05;;
32445;SDS011;18899;50.748;7.102;2023-12-20T10:47:04;16.48;;;2.25;;
32445;SDS011;18899;50.748;7.102;2023-12-20T10:49:30;11.45;;;2.72;;
32445;SDS011;18899;50.748;7.102;2023-12-20T10:51:59;16.63;;;3.13;;
32445;SDS011;18899;50.748;7.102;2023-12-20T10:54:26;10.55;;;2.30;;
32445;SDS011;18899;50.748;7.102;2023-12-20T10:56:52;11.32;;;2.15;;
32445;SDS011;18899;50.748;7.102;2023-12-20T10:59:19;18.15;;;2.78;;
32445;SDS011;18899;50.748;7.102;2023-12-20T11:01:47;21.77;;;2.55;;
32445;SDS011;18899;50.748;7.102;2023-12-20T11:04:15;17.75;;;2.75;;
32445;SDS011;18899;50.748;7.102;2023-12-20T11:06:53;17.85;;;2.53;;
32445;SDS011;18899;50.748;7.102;2023-12-20T11:14:46;18.95;;;2.50;;
32445;SDS011;18899;50.748;7.102;2023-12-20T11:17:13;14.75;;;2.90;;
32445;SDS011;18899;50.748;7.102;2023-12-20T11:22:19;17.70;;;3.10;;
32445;SDS011;18899;50.748;7.102;2023-12-20T11:24:46;21.88;;;3.17;;
32445;SDS011;18899;50.748;7.102;2023-12-20T11:27:12;11.93;;;2.47;;
32445;SDS011;18899;50.748;7.102;2023-12-20T11:29:38;18.25;;;2.40;;
32445;SDS011;18899;50.748;7.102;2023-12-20T11:34:48;18.92;;;2.78;;
32445;SDS011;18899;50.748;7.102;2023-12-20T11:37:37;10.65;;;2.42;;
32445;SDS011;18899;50.748;7.102;2023-12-20T11:40:07;14.63;;;2.67;;
32445;SDS011;18899;50.748;7.102;2023-12-20T11:42:40;20.27;;;2.90;;
32445;SDS011;18899;50.748;7.102;2023-12-20T11:45:10;17.17;;;2.85;;
32445;SDS011;18899;50.748;7.102;2023-12-20T11:47:39;15.20;;;3.00;;
32445;SDS011;18899;50.748;7.102;2023-12-20T11:50:06;16.23;;;2.90;;
32445;SDS011;18899;50.748;7.102;2023-12-20T11:52:31;23.48;;;3.45;;
32445;SDS011;18899;50.748;7.102;2023-12-20T11:54:57;14.88;;;2.60;;
32445;SDS011;18899;50.748;7.102;2023-12-20T11:57:22;18.38;;;3.55;;
32445;SDS011;18899;50.748;7.102;2023-12-20T11:59:48;13.68;;;2.92;;
32445;SDS011;18899;50.748;7.102;2023-12-20T12:02:14;17.90;;;2.40;;
32445;SDS011;18899;50.748;7.102;2023-12-20T12:04:42;16.40;;;2.72;;
32445;SDS011;18899;50.748;7.102;2023-12-20T12:07:08;13.15;;;2.83;;
32445;SDS011;18899;50.748;7.102;2023-12-20T12:09:34;22.50;;;2.88;;
32445;SDS011;18899;50.748;7.102;2023-12-20T12:12:00;16.13;;;2.72;;
32445;SDS011;18899;50.748;7.102;2023-12-20T12:14:26;14.98;;;2.65;;
32445;SDS011;18899;50.748;7.102;2023-12-20T12:16:52;14.38;;;2.33;;
32445;SDS011;18899;50.748;7.102;2023-12-20T12:19:21;15.52;;;2.70;;
32445;SDS011;18899;50.748;7.102;2023-12-20T12:21:48;11.45;;;2.50;;
32445;SDS011;18899;50.748;7.102;2023-12-20T12:24:28;15.73;;;2.28;;
32445;SDS011;18899;50.748;7.102;2023-12-20T12:26:56;17.33;;;2.55;;
32445;SDS011;18899;50.748;7.102;2023-12-20T12:29:23;12.82;;;2.28;;
32445;SDS011;18899;50.748;7.102;2023-12-20T12:31:49;12.60;;;2.38;;
32445;SDS011;18899;50.748;7.102;2023-12-20T12:34:15;19.95;;;3.15;;
32445;SDS011;18899;50.748;7.102;2023-12-20T12:36:42;9.00;;;2.30;;
32445;SDS011;18899;50.748;7.102;2023-12-20T12:39:08;12.52;;;2.17;;
32445;SDS011;18899;50.748;7.102;2023-12-20T12:41:34;14.70;;;2.42;;
32445;SDS011;18899;50.748;7.102;2023-12-20T12:44:00;16.00;;;2.22;;
32445;SDS011;18899;50.748;7.102;2023-12-20T12:46:25;13.27;;;2.35;;
32445;SDS011;18899;50.748;7.102;2023-12-20T12:48:51;12.48;;;2.20;;
32445;SDS011;18899;50.748;7.102;2023-12-20T12:51:16;15.85;;;2.60;;
32445;SDS011;18899;50.748;7.102;2023-12-20T12:53:42;14.00;;;2.78;;
32445;SDS011;18899;50.748;7.102;2023-12-20T12:56:07;10.60;;;2.17;;
32445;SDS011;18899;50.748;7.102;2023-12-20T12:58:33;15.48;;;2.17;;
32445;SDS011;18899;50.748;7.102;2023-12-20T13:00:59;17.42;;;2.83;;
32445;SDS011;18899;50.748;7.102;2023-12-20T13:03:24;7.88;;;2.58;;
32445;SDS011;18899;50.748;7.102;2023-12-20T13:05:50;12.25;;;2.38;;
32445;SDS011;18899;50.748;7.102;2023-12-20T13:08:16;14.93;;;2.60;;
32445;SDS011;18899;50.748;7.102;2023-12-20T13:10:41;20.85;;;2.78;;
32445;SDS011;18899;50.748;7.102;2023-12-20T13:13:07;12.70;;;2.28;;
32445;SDS011;18899;50.748;7.102;2023-12-20T13:15:32;11.82;;;2.80;;
32445;SDS011;18899;50.748;7.102;2023-12-20T13:17:58;11.90;;;2.70;;
32445;SDS011;18899;50.748;7.102;2023-12-20T13:20:25;10.15;;;2.17;;
32445;SDS011;18899;50.748;7.102;2023-12-20T13:22:50;16.77;;;2.65;;
32445;SDS011;18899;50.748;7.102;2023-12-20T13:25:16;14.73;;;3.08;;
32445;SDS011;18899;50.748;7.102;2023-12-20T13:27:41;15.30;;;2.38;;
32445;SDS011;18899;50.748;7.102;2023-12-20T13:30:07;15.10;;;2.88;;
32445;SDS011;18899;50.748;7.102;2023-12-20T13:32:32;15.25;;;2.95;;
32445;SDS011;18899;50.748;7.102;2023-12-20T13:34:58;16.40;;;2.83;;
32445;SDS011;18899;50.748;7.102;2023-12-20T13:37:23;14.38;;;2.83;;
32445;SDS011;18899;50.748;7.102;2023-12-20T13:39:49;10.48;;;2.08;;
32445;SDS011;18899;50.748;7.102;2023-12-20T13:42:15;20.30;;;3.20;;
32445;SDS011;18899;50.748;7.102;2023-12-20T13:44:40;24.02;;;3.13;;
32445;SDS011;18899;50.748;7.102;2023-12-20T13:47:06;10.73;;;2.50;;
32445;SDS011;18899;50.748;7.102;2023-12-20T13:49:31;13.20;;;3.00;;
32445;SDS011;18899;50.748;7.102;2023-12-20T13:51:57;17.65;;;2.83;;
32445;SDS011;18899;50.748;7.102;2023-12-20T13:54:23;16.88;;;2.60;;
32445;SDS011;18899;50.748;7.102;2023-12-20T13:56:49;25.27;;;3.08;;
32445;SDS011;18899;50.748;7.102;2023-12-20T13:59:15;18.30;;;2.95;;
32445;SDS011;18899;50.748;7.102;2023-12-20T14:01:41;19.52;;;3.45;;
32445;SDS011;18899;50.748;7.102;2023-12-20T14:04:06;23.55;;;3.28;;
32445;SDS011;18899;50.748;7.102;2023-12-20T14:06:32;14.93;;;3.60;;
32445;SDS011;18899;50.748;7.102;2023-12-20T14:08:58;13.52;;;2.83;;
32445;SDS011;18899;50.748;7.102;2023-12-20T14:11:27;17.25;;;2.65;;
32445;SDS011;18899;50.748;7.102;2023-12-20T14:13:53;9.30;;;2.63;;
32445;SDS011;18899;50.748;7.102;2023-12-20T14:16:22;13.27;;;2.53;;
32445;SDS011;18899;50.748;7.102;2023-12-20T14:18:51;12.75;;;2.30;;
32445;SDS011;18899;50.748;7.102;2023-12-20T14:21:17;14.88;;;2.67;;
32445;SDS011;18899;50.748;7.102;2023-12-20T14:23:43;12.88;;;2.63;;
32445;SDS011;18899;50.748;7.102;2023-12-20T14:26:08;8.27;;;2.55;;
32445;SDS011;18899;50.748;7.102;2023-12-20T14:28:40;6.82;;;1.63;;
32445;SDS011;18899;50.748;7.102;2023-12-20T14:31:06;12.43;;;2.35;;
32445;SDS011;18899;50.748;7.102;2023-12-20T14:33:33;6.07;;;1.70;;
32445;SDS011;18899;50.748;7.102;2023-12-20T14:35:58;10.07;;;1.60;;
32445;SDS011;18899;50.748;7.102;2023-12-20T14:38:24;14.02;;;2.35;;
32445;SDS011;18899;50.748;7.102;2023-12-20T14:40:50;8.98;;;1.80;;